Time;durP1;ratioP1;P1;durP2;ratioP2;P2;SDS_P1;SDS_P2;PMS_P1;PMS_P2;Temp;Humidity;BMP_temperature;BMP_pressure;BME280_temperature;BME280_humidity;BME280_pressure;Samples;Min_cycle;Max_cycle;Signal;HPM_P1;HPM_P2
2022/01/18 00:00:47;;;;;;;18.83;8.13;;;;;;;6.33;100.00;101992.47;5030709;28;21725;-58
2022/01/18 00:03:14;;;;;;;19.47;8.50;;;;;;;6.38;100.00;101988.19;5042560;28;20250;-58
2022/01/18 00:05:42;;;;;;;18.67;8.33;;;;;;;6.27;100.00;102002.75;5053287;28;20206;-58
2022/01/18 00:08:07;;;;;;;16.57;8.53;;;;;;;6.41;100.00;102000.97;5053417;28;20676;-58
2022/01/18 00:10:33;;;;;;;16.07;8.57;;;;;;;6.42;100.00;102002.63;5050398;28;20239;-59
2022/01/18 00:15:56;;;;;;;20.03;8.30;;;;;;;6.51;100.00;102011.09;5062706;28;20232;-58
2022/01/18 00:18:22;;;;;;;19.60;8.50;;;;;;;6.59;100.00;102014.47;5068295;28;20209;-58
2022/01/18 00:21:10;;;;;;;19.17;7.93;;;;;;;6.54;100.00;102017.03;5056327;28;20221;-58
2022/01/18 00:23:37;;;;;;;18.93;9.33;;;;;;;6.64;100.00;102017.84;5044169;28;20746;-57
2022/01/18 00:26:08;;;;;;;19.90;8.67;;;;;;;6.64;100.00;102017.84;5043038;28;20257;-57
2022/01/18 00:28:34;;;;;;;20.10;8.30;;;;;;;6.63;100.00;102019.53;5045468;28;20192;-59
2022/01/18 00:36:22;;;;;;;17.80;7.20;;;;;;;6.59;100.00;102040.03;5042415;28;20181;-58
2022/01/18 00:38:48;;;;;;;16.50;8.43;;;;;;;6.62;100.00;102034.88;5045324;28;20663;-58
2022/01/18 00:41:17;;;;;;;19.17;7.83;;;;;;;6.75;100.00;102033.94;5033127;28;20340;-59
2022/01/18 00:43:44;;;;;;;18.00;8.23;;;;;;;6.67;99.60;102042.53;5044001;28;20220;-59
2022/01/18 00:46:11;;;;;;;16.10;7.07;;;;;;;6.62;99.75;102043.44;5042286;28;20181;-59
2022/01/18 00:48:37;;;;;;;18.90;7.80;;;;;;;6.43;100.00;102052.91;5047596;28;20193;-59
2022/01/18 00:51:05;;;;;;;22.17;7.67;;;;;;;6.45;100.00;102050.34;5023690;28;20236;-58
2022/01/18 00:53:32;;;;;;;16.37;6.67;;;;;;;6.51;100.00;102050.31;5043590;28;20254;-57
2022/01/18 00:56:19;;;;;;;20.40;7.93;;;;;;;6.58;99.79;102048.56;5036593;28;20577;-58
2022/01/18 00:58:46;;;;;;;15.03;7.17;;;;;;;6.52;99.24;102054.56;5049183;28;21148;-57
2022/01/18 01:01:15;;;;;;;17.80;7.13;;;;;;;6.62;98.72;102061.31;5045276;28;20230;-57
2022/01/18 01:03:41;;;;;;;17.97;7.27;;;;;;;6.55;98.72;102058.78;5057882;28;20217;-58
2022/01/18 01:06:07;;;;;;;18.80;6.87;;;;;;;6.62;98.94;102063.00;5052105;28;20184;-58
2022/01/18 01:08:36;;;;;;;18.30;6.60;;;;;;;6.60;98.46;102065.59;5052226;28;20682;-57
2022/01/18 01:11:04;;;;;;;17.60;7.27;;;;;;;6.63;98.07;102063.00;5049283;28;20766;-57
2022/01/18 01:13:31;;;;;;;14.63;6.10;;;;;;;6.72;97.52;102066.38;5054993;28;20768;-59
2022/01/18 01:45:23;;;;;;;16.57;6.47;;;;;;;6.83;96.23;102068.84;5070189;28;20545;-59
2022/01/18 01:47:51;;;;;;;17.77;6.77;;;;;;;6.77;96.47;102079.97;5071249;28;20176;-59
2022/01/18 01:50:20;;;;;;;15.73;6.00;;;;;;;6.75;96.57;102068.91;5060983;28;20202;-60
2022/01/18 01:52:46;;;;;;;15.37;6.43;;;;;;;6.67;96.89;102068.94;5065145;28;20246;-59
2022/01/18 01:55:12;;;;;;;12.03;5.63;;;;;;;6.66;97.46;102068.97;5050285;28;20180;-59
2022/01/18 01:57:37;;;;;;;13.57;6.43;;;;;;;6.55;98.74;102064.78;5071023;28;20523;-59
2022/01/18 02:00:10;;;;;;;18.73;6.97;;;;;;;6.49;99.06;102057.16;5060662;28;20218;-59
2022/01/18 02:02:36;;;;;;;13.03;5.93;;;;;;;6.57;99.26;102063.06;5061762;28;20216;-59
2022/01/18 02:05:02;;;;;;;16.80;6.77;;;;;;;6.57;99.19;102060.50;5070304;28;20656;-59
2022/01/18 02:07:27;;;;;;;15.53;6.23;;;;;;;6.47;99.33;102063.97;5071203;28;20183;-58
2022/01/18 02:09:53;;;;;;;11.20;6.33;;;;;;;6.41;100.00;102057.19;5071193;28;20283;-59
2022/01/18 02:12:19;;;;;;;22.83;7.20;;;;;;;6.38;100.00;102054.63;5057647;28;20231;-57
2022/01/18 02:14:50;;;;;;;18.63;6.53;;;;;;;6.38;100.00;102059.75;5068394;28;20267;-57
2022/01/18 02:22:51;;;;;;;18.17;8.03;;;;;;;6.51;99.00;102059.69;5042865;28;20230;-59
2022/01/18 02:25:17;;;;;;;11.00;6.93;;;;;;;6.54;98.72;102052.84;5070782;28;20183;-59
2022/01/18 02:27:42;;;;;;;12.97;7.17;;;;;;;6.54;98.67;102055.41;5070825;28;20180;-59
2022/01/18 02:30:08;;;;;;;16.33;7.73;;;;;;;6.52;98.72;102059.66;5060731;28;20707;-59
2022/01/18 02:32:34;;;;;;;16.87;7.30;;;;;;;6.46;98.53;102063.13;5056108;28;20333;-58
2022/01/18 02:35:00;;;;;;;19.57;7.03;;;;;;;6.21;100.00;102061.56;5070230;28;20923;-58
2022/01/18 02:37:25;;;;;;;14.73;6.67;;;;;;;6.13;100.00;102064.97;5070877;28;20260;-59
2022/01/18 02:39:50;;;;;;;16.83;6.77;;;;;;;6.25;100.00;102061.53;5070653;28;20682;-58
2022/01/18 02:42:27;;;;;;;14.00;6.90;;;;;;;6.28;100.00;102055.56;5057310;28;20298;-59
2022/01/18 02:44:52;;;;;;;12.77;6.60;;;;;;;6.31;100.00;102063.19;5061669;28;20179;-59
2022/01/18 02:47:19;;;;;;;18.23;6.57;;;;;;;6.42;100.00;102069.09;5070613;28;20184;-59
2022/01/18 02:49:46;;;;;;;17.53;7.20;;;;;;;6.38;100.00;102066.59;5070056;28;21060;-59
2022/01/18 02:52:11;;;;;;;18.47;7.17;;;;;;;6.34;100.00;102065.75;5058243;28;20234;-59
2022/01/18 02:54:37;;;;;;;15.73;5.97;;;;;;;6.37;100.00;102063.16;5069949;28;20190;-59
2022/01/18 02:57:04;;;;;;;19.80;8.13;;;;;;;6.39;99.74;102070.84;5070750;28;20194;-59
2022/01/18 03:00:25;;;;;;;17.30;6.70;;;;;;;6.39;99.29;102060.63;5070084;28;20182;-59
2022/01/18 03:05:12;;;;;;;20.40;8.03;;;;;;;6.33;99.30;102053.00;5049632;28;20198;-59
2022/01/18 03:07:38;;;;;;;16.43;6.30;;;;;;;6.32;99.31;102058.94;5050434;28;20584;-59
2022/01/18 03:10:05;;;;;;;17.97;6.87;;;;;;;6.16;100.00;102055.63;5040758;28;20201;-59
2022/01/18 03:12:31;;;;;;;19.63;6.70;;;;;;;6.23;100.00;102049.63;5062287;28;20529;-59
2022/01/18 03:14:56;;;;;;;19.40;7.00;;;;;;;6.27;100.00;102056.41;5054046;28;20182;-59
2022/01/18 03:17:22;;;;;;;19.07;6.50;;;;;;;6.23;99.95;102063.25;5054511;28;20646;-60
2022/01/18 03:19:47;;;;;;;15.80;6.70;;;;;;;6.19;100.00;102061.56;5054126;28;20195;-58
2022/01/18 03:22:13;;;;;;;16.13;6.10;;;;;;;6.27;100.00;102075.13;5054169;28;20236;-59
2022/01/18 03:30:08;;;;;;;13.43;5.90;;;;;;;6.10;100.00;102075.25;5039889;28;20215;-59
2022/01/18 03:32:34;;;;;;;15.60;5.87;;;;;;;6.21;99.94;102076.88;5064106;28;20212;-59
2022/01/18 03:34:59;;;;;;;19.70;6.53;;;;;;;6.20;99.88;102073.50;5053594;28;20218;-59
2022/01/18 03:37:25;;;;;;;16.97;6.10;;;;;;;6.17;100.00;102080.31;5054250;28;20637;-59
2022/01/18 03:39:50;;;;;;;15.37;6.13;;;;;;;6.19;99.93;102083.69;5053770;28;20716;-59
2022/01/18 03:45:03;;;;;;;23.40;6.70;;;;;;;5.88;100.00;102081.22;5053844;28;20202;-59
2022/01/18 03:47:29;;;;;;;13.90;6.27;;;;;;;6.00;100.00;102082.94;5054324;28;20181;-59
2022/01/18 03:49:54;;;;;;;16.00;5.90;;;;;;;5.90;100.00;102082.91;5054459;28;20292;-59
2022/01/18 03:52:20;;;;;;;14.33;5.87;;;;;;;5.61;100.00;102073.63;5054410;28;20351;-59
2022/01/18 03:54:47;;;;;;;16.77;5.90;;;;;;;5.19;100.00;102072.00;5053993;28;20556;-58
2022/01/18 03:57:14;;;;;;;14.77;6.03;;;;;;;5.41;100.00;102076.22;5054717;28;20181;-59
2022/01/18 03:59:39;;;;;;;13.80;6.47;;;;;;;5.42;100.00;102077.94;5054432;28;20193;-59
2022/01/18 04:02:06;;;;;;;12.07;5.93;;;;;;;5.54;100.00;102079.59;5038540;28;20239;-59
2022/01/18 04:04:33;;;;;;;17.17;6.53;;;;;;;5.37;100.00;102079.66;5073788;28;20188;-58
2022/01/18 04:06:58;;;;;;;15.87;6.03;;;;;;;5.19;100.00;102075.41;5074735;28;20624;-58
2022/01/18 04:09:25;;;;;;;16.97;6.63;;;;;;;5.55;100.00;102078.75;5074345;28;20222;-59
2022/01/18 04:11:51;;;;;;;17.10;6.07;;;;;;;5.44;100.00;102076.22;5055878;28;20250;-59
2022/01/18 04:14:16;;;;;;;20.20;5.70;;;;;;;5.55;100.00;102072.81;5069873;28;20263;-59
2022/01/18 04:16:56;;;;;;;16.37;5.50;;;;;;;5.28;100.00;102079.66;5061807;28;20361;-59
2022/01/18 04:27:34;;;;;;;19.97;5.60;;;;;;;5.72;100.00;102082.97;5066650;28;20204;-59
2022/01/18 04:30:00;;;;;;;17.47;5.70;;;;;;;5.85;100.00;102084.63;5072639;28;20200;-59
2022/01/18 04:32:25;;;;;;;16.63;6.03;;;;;;;5.77;100.00;102078.72;5040965;28;20253;-59
2022/01/18 04:34:50;;;;;;;19.43;5.70;;;;;;;5.89;100.00;102075.25;5072678;28;20198;-59
2022/01/18 04:37:16;;;;;;;14.93;6.67;;;;;;;6.00;100.00;102086.31;5073147;28;20187;-59
2022/01/18 04:39:43;;;;;;;16.03;6.27;;;;;;;5.80;100.00;102087.22;5072992;28;20547;-59
2022/01/18 04:42:39;;;;;;;15.83;5.73;;;;;;;5.85;100.00;102089.75;5056307;28;20622;-59
2022/01/18 04:50:44;;;;;;;17.87;6.03;;;;;;;5.78;100.00;102085.50;5053733;28;20299;-59
2022/01/18 04:53:09;;;;;;;15.27;6.23;;;;;;;5.48;100.00;102083.03;5066371;28;20200;-59
2022/01/18 04:55:36;;;;;;;13.67;5.97;;;;;;;5.26;100.00;102087.31;5072240;28;20968;-58
2022/01/18 04:58:01;;;;;;;18.13;6.60;;;;;;;5.56;100.00;102100.88;5072175;28;20209;-59
2022/01/18 05:00:26;;;;;;;15.67;6.53;;;;;;;5.63;100.00;102100.03;5061919;28;20742;-59
2022/01/18 05:02:52;;;;;;;13.17;5.80;;;;;;;5.74;100.00;102094.91;5065991;28;20230;-59
2022/01/18 05:05:28;;;;;;;14.00;6.47;;;;;;;5.69;100.00;102105.97;5071613;28;20181;-59
2022/01/18 05:07:58;;;;;;;14.57;6.27;;;;;;;5.77;100.00;102107.66;5072062;28;20766;-59
2022/01/18 05:10:27;;;;;;;20.97;6.47;;;;;;;5.76;100.00;102110.22;5058865;28;20696;-58
2022/01/18 05:12:54;;;;;;;16.40;6.20;;;;;;;5.48;100.00;102108.56;5045461;28;20213;-59
2022/01/18 05:15:41;;;;;;;19.50;6.50;;;;;;;5.42;100.00;102116.22;5044251;28;20188;-59
2022/01/18 05:18:59;;;;;;;15.40;6.70;;;;;;;5.55;100.00;102116.22;5043831;28;20604;-59
2022/01/18 05:21:19;;;;;;;15.20;6.47;;;;;;;5.40;100.00;102120.47;5024026;28;20254;-58
2022/01/18 05:23:45;;;;;;;15.43;5.83;;;;;;;5.54;100.00;102117.06;5041383;28;20210;-59
2022/01/18 05:26:10;;;;;;;17.97;5.70;;;;;;;5.74;100.00;102128.09;5041976;28;20186;-58
2022/01/18 05:28:35;;;;;;;18.63;6.27;;;;;;;5.75;100.00;102123.84;5039152;28;20194;-59
2022/01/18 05:31:01;;;;;;;17.87;5.77;;;;;;;5.65;100.00;102120.44;5031211;28;20247;-59
2022/01/18 05:33:26;;;;;;;13.50;5.70;;;;;;;5.64;100.00;102126.41;5042141;28;20681;-59
2022/01/18 05:35:52;;;;;;;17.63;5.77;;;;;;;5.58;100.00;102132.38;5025691;28;20191;-59
2022/01/18 05:38:17;;;;;;;18.00;5.90;;;;;;;5.69;100.00;102136.63;5042327;28;20192;-58
2022/01/18 05:40:42;;;;;;;11.30;5.73;;;;;;;5.57;100.00;102135.78;5033490;28;20261;-59
2022/01/18 05:43:08;;;;;;;15.67;5.90;;;;;;;5.69;100.00;102137.44;5042921;28;20200;-59
2022/01/18 05:45:33;;;;;;;13.37;5.53;;;;;;;5.85;100.00;102137.44;5038963;28;20179;-59
2022/01/18 05:47:59;;;;;;;18.27;5.90;;;;;;;5.95;100.00;102141.66;5050221;28;20644;-59
2022/01/18 05:50:24;;;;;;;13.90;6.10;;;;;;;6.05;100.00;102142.53;5028532;28;20240;-59
2022/01/18 05:52:50;;;;;;;16.93;6.40;;;;;;;6.10;100.00;102140.81;5040054;28;20551;-58
2022/01/18 05:55:15;;;;;;;15.37;5.63;;;;;;;6.09;100.00;102142.53;5046816;28;20197;-58
2022/01/18 05:57:41;;;;;;;20.50;6.73;;;;;;;6.09;100.00;102146.75;5051567;28;20656;-59
2022/01/18 06:00:11;;;;;;;17.47;6.43;;;;;;;6.05;100.00;102153.59;5037292;28;20259;-59
2022/01/18 06:02:48;;;;;;;14.17;6.67;;;;;;;6.09;100.00;102157.84;5038015;28;20200;-59
2022/01/18 06:07:58;;;;;;;12.83;5.43;;;;;;;5.66;100.00;102157.91;5041895;28;20252;-59
2022/01/18 06:10:24;;;;;;;16.97;7.93;;;;;;;5.37;100.00;102163.00;5029452;28;20239;-58
2022/01/18 06:12:49;;;;;;;14.73;6.87;;;;;;;5.33;100.00;102157.03;5033120;28;20219;-59
2022/01/18 06:15:14;;;;;;;23.00;6.97;;;;;;;5.32;100.00;102161.31;5043383;28;20193;-58
2022/01/18 06:17:40;;;;;;;16.03;6.97;;;;;;;5.54;100.00;102158.75;5040872;28;20183;-60
2022/01/18 06:20:06;;;;;;;19.07;7.33;;;;;;;5.64;100.00;102162.16;5033341;28;20308;-60
2022/01/18 06:22:32;;;;;;;17.67;7.47;;;;;;;5.70;100.00;102166.41;5039997;28;20703;-59
2022/01/18 06:24:57;;;;;;;14.07;6.17;;;;;;;5.74;100.00;102168.09;5045922;28;20176;-59
2022/01/18 06:27:23;;;;;;;19.20;6.50;;;;;;;5.87;100.00;102168.94;5040310;28;20578;-59
2022/01/18 06:29:48;;;;;;;16.87;7.00;;;;;;;5.81;100.00;102169.78;5045525;28;20219;-59
2022/01/18 06:32:13;;;;;;;15.53;6.03;;;;;;;5.64;100.00;102163.00;5037607;28;20754;-59
2022/01/18 06:34:39;;;;;;;17.03;5.70;;;;;;;5.34;100.00;102171.50;5040964;28;20195;-59
2022/01/18 06:37:05;;;;;;;12.70;5.37;;;;;;;5.26;100.00;102168.09;5038237;28;20196;-59
2022/01/18 06:39:30;;;;;;;15.53;5.60;;;;;;;5.42;100.00;102168.94;5040534;28;20180;-59
2022/01/18 06:41:55;;;;;;;14.53;6.07;;;;;;;5.42;100.00;102171.50;5032049;28;20234;-59
2022/01/18 06:44:22;;;;;;;19.77;5.67;;;;;;;5.59;100.00;102179.16;5045001;28;20632;-58
2022/01/18 06:46:47;;;;;;;17.50;5.40;;;;;;;5.58;100.00;102175.78;5045025;28;20227;-59
2022/01/18 06:49:13;;;;;;;18.10;6.77;;;;;;;5.71;100.00;102186.00;5041882;28;20200;-60
2022/01/18 06:51:38;;;;;;;11.73;5.93;;;;;;;5.77;100.00;102183.44;5032705;28;20564;-59
2022/01/18 06:54:03;;;;;;;11.20;6.47;;;;;;;5.85;100.00;102188.53;5051030;28;20199;-59
2022/01/18 06:56:29;;;;;;;14.53;6.03;;;;;;;5.91;100.00;102193.63;5050727;28;20185;-59
2022/01/18 06:58:54;;;;;;;16.00;7.00;;;;;;;5.73;100.00;102190.25;5044189;28;20191;-59
2022/01/18 07:01:21;;;;;;;15.50;6.93;;;;;;;5.18;100.00;102193.59;5028498;28;20248;-58
2022/01/18 07:03:48;;;;;;;12.97;6.10;;;;;;;5.13;100.00;102205.50;5042774;28;20271;-58
2022/01/18 07:06:14;;;;;;;17.23;6.50;;;;;;;5.34;100.00;102200.41;5022301;28;20191;-59
2022/01/18 07:08:39;;;;;;;14.77;6.53;;;;;;;5.47;100.00;102203.84;5042808;28;20540;-61
2022/01/18 07:11:06;;;;;;;18.13;6.27;;;;;;;5.58;100.00;102208.97;5025729;28;20245;-59
2022/01/18 07:13:31;;;;;;;20.70;6.10;;;;;;;5.58;100.00;102208.97;5042731;28;20210;-59
2022/01/18 07:15:56;;;;;;;16.23;7.40;;;;;;;5.69;100.00;102215.78;5039653;28;20309;-60
2022/01/18 07:18:21;;;;;;;17.63;6.87;;;;;;;5.63;100.00;102224.28;5036696;28;20285;-59
2022/01/18 07:20:47;;;;;;;10.80;6.00;;;;;;;5.42;100.00;102222.56;5031500;28;20243;-59
2022/01/18 07:23:13;;;;;;;15.13;7.23;;;;;;;5.16;100.00;102220.84;5044502;28;20208;-59
2022/01/18 07:25:42;;;;;;;16.00;6.03;;;;;;;5.03;100.00;102221.66;5046649;28;20222;-59
2022/01/18 07:28:09;;;;;;;13.27;6.00;;;;;;;5.11;100.00;102218.28;5048192;28;20286;-59
2022/01/18 07:30:35;;;;;;;11.13;6.10;;;;;;;5.32;100.00;102216.59;5032277;28;20258;-59
2022/01/18 07:33:01;;;;;;;14.77;5.80;;;;;;;5.56;100.00;102215.78;5034850;28;21056;-58
2022/01/18 07:35:27;;;;;;;14.77;6.77;;;;;;;5.37;100.00;102212.38;5046835;28;20274;-58
2022/01/18 07:37:53;;;;;;;13.13;6.07;;;;;;;5.47;100.00;102221.72;5044528;28;20280;-58
2022/01/18 07:40:18;;;;;;;16.40;7.03;;;;;;;5.63;100.00;102212.38;5035370;28;20263;-58
2022/01/18 07:42:43;;;;;;;16.53;7.00;;;;;;;5.74;100.00;102220.03;5029141;28;20702;-59
2022/01/18 07:45:09;;;;;;;9.73;6.20;;;;;;;5.90;100.00;102217.47;5048468;28;20323;-59
2022/01/18 07:47:34;;;;;;;16.73;5.97;;;;;;;6.00;100.00;102210.66;5048272;28;20248;-60
2022/01/18 07:50:00;;;;;;;16.50;5.87;;;;;;;5.84;100.00;102220.84;5047488;28;20211;-58
2022/01/18 07:52:25;;;;;;;13.33;5.20;;;;;;;5.94;100.00;102214.91;5037600;28;20229;-59
2022/01/18 07:54:50;;;;;;;16.20;6.17;;;;;;;6.04;100.00;102225.13;5053457;28;20235;-59
2022/01/18 07:57:16;;;;;;;12.43;5.83;;;;;;;6.18;100.00;102225.97;5052284;28;20191;-59
2022/01/18 07:59:41;;;;;;;14.13;6.70;;;;;;;6.29;100.00;102221.69;5045518;28;20640;-54
2022/01/18 08:02:07;;;;;;;12.53;6.30;;;;;;;6.44;100.00;102215.66;5019961;28;20234;-54
2022/01/18 08:04:32;;;;;;;17.47;6.40;;;;;;;6.23;100.00;102220.84;5048236;28;20194;-59
2022/01/18 08:06:58;;;;;;;17.37;6.50;;;;;;;6.07;100.00;102220.88;5043299;28;20498;-58
2022/01/18 08:09:23;;;;;;;20.37;6.10;;;;;;;5.79;100.00;102225.13;5046802;28;20671;-58
2022/01/18 08:11:51;;;;;;;18.50;6.63;;;;;;;5.74;100.00;102219.16;5043385;28;20219;-59
2022/01/18 08:14:17;;;;;;;17.43;5.77;;;;;;;5.75;100.00;102214.06;5048532;28;20177;-58
2022/01/18 08:16:50;;;;;;;13.60;5.87;;;;;;;5.69;100.00;102218.31;5031048;28;20722;-57
2022/01/18 08:19:17;;;;;;;17.90;6.20;;;;;;;5.63;100.00;102219.16;5032751;28;20182;-58
2022/01/18 08:21:43;;;;;;;19.13;6.07;;;;;;;5.96;100.00;102212.34;5023614;28;20224;-58
2022/01/18 08:24:09;;;;;;;11.97;6.00;;;;;;;6.08;100.00;102216.63;5044454;28;20537;-58
2022/01/18 08:26:34;;;;;;;13.63;6.27;;;;;;;6.38;100.00;102220.81;5033107;28;20195;-59
2022/01/18 08:28:59;;;;;;;16.57;6.23;;;;;;;6.50;100.00;102225.03;5047744;28;20620;-58
2022/01/18 08:31:25;;;;;;;14.27;6.40;;;;;;;6.61;100.00;102224.97;5010126;28;20319;-58
2022/01/18 08:33:50;;;;;;;15.53;7.50;;;;;;;6.69;98.88;102215.56;5036967;28;20203;-59
2022/01/18 08:36:16;;;;;;;15.73;6.73;;;;;;;6.89;97.54;102222.31;5033439;28;20189;-58
2022/01/18 08:38:41;;;;;;;15.63;6.40;;;;;;;6.88;97.21;102220.59;5041099;28;20275;-59
2022/01/18 08:41:07;;;;;;;10.87;6.60;;;;;;;7.03;96.30;102227.34;5032451;28;20236;-59
2022/01/18 08:43:37;;;;;;;12.83;6.30;;;;;;;7.10;95.70;102229.03;5050895;28;20246;-59
2022/01/18 08:46:03;;;;;;;16.37;6.87;;;;;;;7.22;94.21;102220.44;5028293;28;20554;-58
2022/01/18 08:48:30;;;;;;;22.03;6.57;;;;;;;7.22;93.36;102225.56;5051297;28;20705;-58
2022/01/18 08:50:59;;;;;;;14.13;6.43;;;;;;;7.48;92.08;102224.50;5031230;28;20463;-60
2022/01/18 08:53:25;;;;;;;13.60;6.33;;;;;;;7.57;91.75;102227.00;5051113;28;20201;-58
2022/01/18 08:55:51;;;;;;;15.30;6.13;;;;;;;7.47;90.92;102228.78;5037477;28;20189;-58
2022/01/18 08:58:16;;;;;;;15.98;6.60;;;;;;;7.66;89.71;102231.19;5039790;28;20417;-59
2022/01/18 09:00:42;;;;;;;15.23;5.90;;;;;;;7.73;89.81;102235.41;5016171;28;20237;-59
2022/01/18 09:03:10;;;;;;;15.13;5.43;;;;;;;7.56;89.84;102235.53;5042785;28;20200;-59
2022/01/18 09:05:37;;;;;;;15.03;5.37;;;;;;;7.59;89.96;102232.94;5050255;28;20228;-58
2022/01/18 09:08:06;;;;;;;16.20;6.47;;;;;;;7.97;86.59;102228.38;5029185;28;20545;-58
2022/01/18 09:10:31;;;;;;;13.83;5.90;;;;;;;7.80;88.02;102239.63;5040842;28;20292;-59
2022/01/18 09:12:57;;;;;;;14.80;6.00;;;;;;;8.25;85.30;102231.50;5063419;28;20501;-57
2022/01/18 09:15:24;;;;;;;21.23;6.03;;;;;;;7.89;87.05;102231.00;5053810;28;20230;-58
2022/01/18 09:17:50;;;;;;;13.50;5.67;;;;;;;7.86;87.92;102238.72;5054006;28;20176;-59
2022/01/18 09:20:15;;;;;;;12.87;5.53;;;;;;;7.84;88.16;102237.88;5041492;28;20640;-58
2022/01/18 09:22:44;;;;;;;16.30;6.70;;;;;;;8.02;86.68;102237.69;5064052;28;20427;-58
2022/01/18 09:25:12;;;;;;;11.43;5.47;;;;;;;7.98;86.98;102237.75;5071386;28;20216;-58
2022/01/18 09:27:38;;;;;;;14.97;5.80;;;;;;;7.99;86.51;102235.19;5071607;28;20185;-59
2022/01/18 09:30:04;;;;;;;15.13;5.00;;;;;;;8.12;86.19;102245.31;5059760;28;20295;-60
2022/01/18 09:32:30;;;;;;;12.60;5.47;;;;;;;8.07;85.78;102255.59;5060143;28;20205;-59
2022/01/18 09:34:55;;;;;;;12.83;5.70;;;;;;;8.16;85.80;102254.66;5070023;28;20184;-58
2022/01/18 09:37:21;;;;;;;16.07;6.13;;;;;;;8.19;85.27;102257.22;5068691;28;20207;-59
2022/01/18 09:39:46;;;;;;;12.90;5.77;;;;;;;8.18;85.58;102258.91;5070624;28;20180;-58
2022/01/18 09:42:12;;;;;;;9.70;5.07;;;;;;;8.23;85.82;102262.28;5059792;28;20224;-60
2022/01/18 09:44:39;;;;;;;13.83;5.70;;;;;;;7.95;87.21;102260.84;5070457;28;20218;-58
2022/01/18 09:47:05;;;;;;;17.70;5.33;;;;;;;8.01;88.44;102260.78;5071647;28;20284;-60
2022/01/18 09:49:32;;;;;;;9.97;5.20;;;;;;;8.21;87.52;102258.03;5071581;28;20203;-59
2022/01/18 09:51:58;;;;;;;13.30;5.60;;;;;;;8.46;86.60;102262.91;5039983;28;20272;-58
2022/01/18 09:54:24;;;;;;;11.33;5.73;;;;;;;8.46;85.22;102256.09;5050337;28;20231;-58
2022/01/18 09:56:49;;;;;;;14.33;5.63;;;;;;;8.48;85.12;102262.03;5039311;28;20700;-58
2022/01/18 09:59:15;;;;;;;12.10;5.70;;;;;;;8.66;84.00;102261.00;5046602;28;20750;-59
2022/01/18 10:01:41;;;;;;;17.60;5.87;;;;;;;8.77;82.70;102260.88;5027508;28;20608;-59
2022/01/18 10:04:15;;;;;;;13.23;5.63;;;;;;;8.78;82.27;102262.56;5039281;28;20189;-60
2022/01/18 10:06:41;;;;;;;11.67;5.50;;;;;;;8.64;82.80;102259.31;5020401;28;20202;-59
2022/01/18 10:09:15;;;;;;;14.67;5.43;;;;;;;8.54;82.47;102263.69;5036735;28;20678;-59
2022/01/18 10:12:13;;;;;;;11.60;5.80;;;;;;;8.30;82.69;102260.50;5026288;28;20635;-59
2022/01/18 10:14:51;;;;;;;11.93;4.20;;;;;;;8.43;81.69;102255.25;5047973;28;20665;-59
2022/01/18 10:17:30;;;;;;;14.53;4.80;;;;;;;8.40;81.89;102253.56;5040893;28;20189;-58
2022/01/18 10:20:04;;;;;;;11.23;4.73;;;;;;;8.65;80.53;102259.28;5022444;28;20192;-59
2022/01/18 10:22:43;;;;;;;11.23;4.33;;;;;;;8.92;79.07;102262.41;5015674;28;20225;-58
2022/01/18 10:25:26;;;;;;;12.60;4.53;;;;;;;8.95;77.69;102253.81;5045285;28;20637;-58
2022/01/18 10:27:53;;;;;;;9.90;4.43;;;;;;;8.85;77.94;102253.91;5035315;28;20192;-57
2022/01/18 10:30:45;;;;;;;9.10;3.57;;;;;;;8.68;76.91;102255.84;5022017;28;20248;-58
2022/01/18 10:33:19;;;;;;;12.07;4.00;;;;;;;8.63;77.50;102253.31;5036681;28;20280;-58
2022/01/18 10:36:10;;;;;;;9.50;4.40;;;;;;;8.74;77.03;102240.38;5043822;28;20181;-59
2022/01/18 10:38:41;;;;;;;11.33;3.73;;;;;;;8.90;76.33;102248.72;5038842;28;20209;-58
2022/01/18 10:41:30;;;;;;;8.53;3.83;;;;;;;9.27;75.68;102248.22;5037003;28;20221;-60
2022/01/18 10:44:08;;;;;;;11.17;5.40;;;;;;;9.99;71.05;102248.75;5042150;28;20507;-59
2022/01/18 10:46:37;;;;;;;10.67;4.50;;;;;;;10.01;70.37;102243.63;5042066;28;20177;-59
2022/01/18 10:49:04;;;;;;;12.13;4.43;;;;;;;10.25;70.88;102241.47;5045356;28;20185;-59
2022/01/18 10:51:31;;;;;;;12.37;3.90;;;;;;;10.36;69.40;102236.09;5029064;28;20229;-59
2022/01/18 10:53:59;;;;;;;10.13;3.67;;;;;;;9.93;68.79;102238.59;5046330;28;20203;-59
2022/01/18 10:56:24;;;;;;;8.97;3.90;;;;;;;9.72;69.93;102239.81;5038275;28;20239;-60
2022/01/18 10:58:55;;;;;;;8.80;3.93;;;;;;;9.82;69.21;102232.78;5025694;28;20562;-60
2022/01/18 11:01:22;;;;;;;10.13;3.70;;;;;;;9.90;68.56;102237.78;5034228;28;20228;-59
2022/01/18 11:04:11;;;;;;;6.17;3.50;;;;;;;9.51;69.21;102231.59;5026354;28;20258;-59
2022/01/18 11:06:38;;;;;;;9.67;3.67;;;;;;;9.52;70.89;102227.28;5043186;28;20205;-58
2022/01/18 11:09:14;;;;;;;9.50;4.20;;;;;;;10.07;67.73;102225.50;5034716;28;20428;-59
2022/01/18 11:11:47;;;;;;;10.33;3.73;;;;;;;9.96;68.62;102228.28;5040050;28;20220;-59
2022/01/18 11:14:17;;;;;;;9.13;3.87;;;;;;;9.96;69.31;102214.53;5043753;28;20174;-60
2022/01/18 11:16:44;;;;;;;9.73;3.67;;;;;;;9.39;69.21;102216.38;5042218;28;20675;-59
2022/01/18 11:21:46;;;;;;;13.87;3.67;;;;;;;9.73;69.32;102212.41;5035586;28;20253;-57
2022/01/18 11:24:15;;;;;;;10.23;3.80;;;;;;;9.95;67.75;102211.13;5039205;28;20239;-57
2022/01/18 11:26:42;;;;;;;8.53;4.30;;;;;;;9.59;68.92;102216.03;5037213;28;20178;-55
2022/01/18 11:29:08;;;;;;;8.10;3.90;;;;;;;9.45;70.54;102212.84;5042549;28;20261;-56
2022/01/18 11:31:34;;;;;;;12.03;4.77;;;;;;;9.47;71.16;102216.25;5031411;28;20309;-57
2022/01/18 11:34:00;;;;;;;8.73;3.93;;;;;;;9.38;71.71;102209.53;5033807;28;20198;-59
2022/01/18 11:36:33;;;;;;;11.73;4.35;;;;;;;10.01;69.30;102195.59;5044995;28;20415;-59
2022/01/18 11:39:03;;;;;;;8.10;4.03;;;;;;;9.82;68.88;102204.53;5034736;28;20327;-60
2022/01/18 11:41:31;;;;;;;7.97;3.40;;;;;;;9.36;70.10;102198.44;5037796;28;20411;-59
2022/01/18 11:43:59;;;;;;;7.27;3.50;;;;;;;8.80;72.79;102201.78;5042422;28;20699;-58
2022/01/18 11:46:30;;;;;;;10.13;3.53;;;;;;;8.97;72.95;102193.03;5026131;28;20185;-57
2022/01/18 11:49:13;;;;;;;9.05;4.22;;;;;;;9.07;70.38;102189.47;5023759;28;20757;-58
2022/01/18 11:51:44;;;;;;;8.17;3.60;;;;;;;8.83;71.83;102198.34;5034462;28;20777;-59
2022/01/18 11:56:56;;;;;;;8.03;3.90;;;;;;;8.74;74.42;102186.47;5053973;28;20662;-59
2022/01/18 11:59:27;;;;;;;10.00;3.50;;;;;;;8.32;73.93;102188.69;5046501;28;20260;-59
2022/01/18 12:01:56;;;;;;;8.20;3.70;;;;;;;8.06;76.72;102193.25;5023514;28;20299;-59
2022/01/18 12:07:09;;;;;;;9.85;4.32;;;;;;;8.94;74.81;102190.50;5045138;28;20557;-58
2022/01/18 12:09:48;;;;;;;7.47;4.07;;;;;;;8.83;75.58;102180.38;5047067;28;20212;-60
2022/01/18 12:12:49;;;;;;;11.40;4.17;;;;;;;8.69;76.40;102181.41;5039372;28;20229;-58
2022/01/18 12:15:21;;;;;;;7.03;4.10;;;;;;;8.78;77.23;102183.03;5034631;28;20208;-58
2022/01/18 12:17:50;;;;;;;8.00;3.87;;;;;;;8.85;76.70;102187.19;5038110;28;20221;-57
2022/01/18 12:20:37;;;;;;;9.30;3.87;;;;;;;8.93;74.93;102178.53;5036558;28;20195;-58
2022/01/18 12:23:20;;;;;;;9.00;3.57;;;;;;;8.58;75.34;102177.28;5025219;28;20805;-60
2022/01/18 12:26:13;;;;;;;8.67;3.63;;;;;;;8.75;76.35;102174.53;5040236;28;20216;-58
2022/01/18 12:29:34;;;;;;;9.20;3.77;;;;;;;8.69;76.27;102175.44;5049054;28;20177;-58
2022/01/18 12:34:33;;;;;;;9.10;3.60;;;;;;;8.81;74.43;102169.31;5071859;28;20173;-57
2022/01/18 12:37:08;;;;;;;9.53;3.77;;;;;;;8.94;73.61;102173.38;5077396;28;20240;-58
2022/01/18 12:39:55;;;;;;;8.73;3.77;;;;;;;8.76;73.39;102166.78;5081322;28;20203;-58
2022/01/18 12:45:01;;;;;;;8.50;4.23;;;;;;;8.32;75.10;102170.75;5071462;28;20184;-58
2022/01/18 12:47:27;;;;;;;6.37;3.60;;;;;;;8.10;77.84;102168.44;5073334;28;20263;-59
2022/01/18 12:49:53;;;;;;;7.07;3.40;;;;;;;8.30;77.46;102163.06;5069264;28;20201;-59
2022/01/18 12:52:19;;;;;;;6.77;3.50;;;;;;;8.24;77.03;102158.84;5058647;28;20240;-59